createdAt,value
2022-08-20T00:01:02.640Z,95.3
2022-08-20T00:21:02.494Z,95.1
2022-08-20T00:41:02.501Z,95
2022-08-20T01:01:02.432Z,95
2022-08-20T01:21:02.340Z,95.1
2022-08-20T01:41:02.311Z,95.1
2022-08-20T02:01:02.238Z,95.1
2022-08-20T02:21:02.213Z,95.1
2022-08-20T02:41:02.172Z,95.2
2022-08-20T03:01:02.204Z,95.1
2022-08-20T03:21:02.238Z,95.1
2022-08-20T03:41:02.024Z,95.1
2022-08-20T04:01:02.046Z,95.2
2022-08-20T04:21:01.935Z,95.5
2022-08-20T04:41:01.868Z,95.7
2022-08-20T05:01:01.909Z,95.8
2022-08-20T05:21:01.739Z,95.8
2022-08-20T05:41:01.698Z,95.7
2022-08-20T06:01:01.710Z,95.3
2022-08-20T06:21:01.683Z,94.8
2022-08-20T06:41:01.577Z,94.1
2022-08-20T07:01:04.997Z,92.6
2022-08-20T07:21:01.447Z,91.6
2022-08-20T07:41:01.544Z,90.9
2022-08-20T08:01:01.405Z,89.6
2022-08-20T08:21:01.325Z,88.4
2022-08-20T08:41:01.244Z,87.5
2022-08-20T09:01:01.582Z,88.7
2022-08-20T09:21:01.196Z,89.3
2022-08-20T09:41:01.099Z,88.1
2022-08-20T10:01:01.053Z,87.4
2022-08-20T10:21:01.001Z,86.8
2022-08-20T11:01:00.920Z,83
2022-08-20T11:21:00.866Z,81.5
2022-08-20T11:41:00.942Z,80.6
2022-08-20T12:01:00.770Z,81.3
2022-08-20T12:21:00.706Z,82.8
2022-08-20T12:41:00.687Z,83.5
2022-08-20T13:01:00.674Z,84
2022-08-20T13:21:00.555Z,85.8
2022-08-20T13:41:00.504Z,84.8
2022-08-20T14:01:00.534Z,86.2
2022-08-20T14:21:00.390Z,87.8
2022-08-20T14:41:00.351Z,88.9
2022-08-20T15:01:00.345Z,90.4
2022-08-20T15:21:00.270Z,91.2
2022-08-20T15:41:00.243Z,92
2022-08-20T16:01:11.295Z,92.6
2022-08-20T16:21:03.542Z,92.5
2022-08-20T16:41:00.061Z,93.1
2022-08-20T17:01:00.046Z,93.2
2022-08-20T17:20:59.984Z,93.3
2022-08-20T17:40:59.939Z,93.4
2022-08-20T18:00:59.849Z,94.3
2022-08-20T18:20:59.809Z,94.1
2022-08-20T18:40:59.779Z,94.8
2022-08-20T19:00:59.738Z,94.8
2022-08-20T19:20:59.653Z,95
2022-08-20T19:41:11.116Z,95.3
2022-08-20T20:00:59.559Z,95.4
2022-08-20T20:20:59.549Z,95.5
2022-08-20T20:40:59.491Z,95.5
2022-08-20T21:00:59.452Z,95.6
2022-08-20T21:20:59.396Z,95.6
2022-08-20T21:40:59.347Z,95.7
2022-08-20T22:00:59.347Z,95.6
2022-08-20T22:20:59.218Z,95.2
2022-08-20T22:40:59.198Z,95.1
2022-08-20T23:00:59.172Z,95.2
2022-08-20T23:20:59.056Z,95.4
2022-08-20T23:40:59.115Z,95.3
